createdAt,value
2018-11-14T00:00:29.177Z,7.60
2018-11-14T00:02:59.230Z,7.60
2018-11-14T00:05:28.344Z,7.50
2018-11-14T00:07:57.601Z,7.50
2018-11-14T00:10:27.776Z,7.40
2018-11-14T00:12:58.513Z,7.40
2018-11-14T00:15:27.563Z,7.40
2018-11-14T00:17:56.982Z,7.30
2018-11-14T00:20:26.105Z,7.30
2018-11-14T00:22:55.238Z,7.20
2018-11-14T00:25:24.368Z,7.20
2018-11-14T00:27:54.185Z,7.10
2018-11-14T00:30:24.836Z,7.00
2018-11-14T00:32:54.260Z,7.00
2018-11-14T00:35:23.390Z,7.00
2018-11-14T00:37:52.518Z,7.00
2018-11-14T00:40:23.062Z,6.90
2018-11-14T00:42:53.147Z,6.90
2018-11-14T00:45:23.000Z,6.90
2018-11-14T00:47:52.368Z,6.90
2018-11-14T00:50:21.891Z,6.90
2018-11-14T00:52:51.279Z,6.90
2018-11-14T00:55:21.606Z,6.90
2018-11-14T00:57:51.961Z,6.90
2018-11-14T01:00:22.612Z,6.90
2018-11-14T01:02:52.086Z,6.90
2018-11-14T01:05:21.369Z,6.80
2018-11-14T01:07:50.664Z,6.80
2018-11-14T01:10:20.956Z,6.80
2018-11-14T01:12:51.597Z,6.80
2018-11-14T01:15:22.263Z,6.80
2018-11-14T01:17:51.556Z,6.80
2018-11-14T01:20:21.697Z,6.80
2018-11-14T01:22:50.765Z,6.90
2018-11-14T01:25:20.276Z,6.90
2018-11-14T01:27:49.591Z,7.00
2018-11-14T01:30:24.686Z,7.00
2018-11-14T01:32:55.071Z,7.00
2018-11-14T01:35:24.324Z,7.00
2018-11-14T01:37:53.636Z,7.00
2018-11-14T01:40:27.367Z,7.00
2018-11-14T01:42:58.007Z,7.00
2018-11-14T01:45:28.148Z,6.90
2018-11-14T01:47:58.364Z,6.90
2018-11-14T01:50:27.987Z,6.80
2018-11-14T01:52:57.208Z,6.80
2018-11-14T01:55:26.304Z,6.80
2018-11-14T01:57:55.531Z,6.70
2018-11-14T02:00:25.760Z,6.70
2018-11-14T02:02:55.069Z,6.70
2018-11-14T02:05:24.549Z,6.70
2018-11-14T02:07:53.973Z,6.70
2018-11-14T02:10:23.047Z,6.60
2018-11-14T02:12:52.404Z,6.60
2018-11-14T02:15:22.681Z,6.60
2018-11-14T02:17:52.289Z,6.50
2018-11-14T02:20:22.017Z,6.50
2018-11-14T02:22:51.738Z,6.50
2018-11-14T02:25:20.930Z,6.50
2018-11-14T02:27:50.220Z,6.50
2018-11-14T02:30:21.896Z,6.50
2018-11-14T02:32:51.390Z,6.50
2018-11-14T02:35:20.673Z,6.50
2018-11-14T02:37:50.322Z,6.50
2018-11-14T02:40:21.552Z,6.50
2018-11-14T02:42:50.836Z,6.60
2018-11-14T02:45:20.090Z,6.50
2018-11-14T02:47:49.409Z,6.50
2018-11-14T02:50:19.438Z,6.50
2018-11-14T02:52:48.520Z,6.50
2018-11-14T02:55:18.069Z,6.50
2018-11-14T02:57:47.362Z,6.40
2018-11-14T03:00:19.024Z,6.40
2018-11-14T03:02:54.851Z,6.50
2018-11-14T03:05:24.133Z,6.50
2018-11-14T03:07:53.317Z,6.40
2018-11-14T03:10:22.595Z,6.40
2018-11-14T03:12:51.672Z,6.40
2018-11-14T03:15:22.699Z,6.40
2018-11-14T03:17:51.881Z,6.40
2018-11-14T03:20:21.915Z,6.40
2018-11-14T03:22:50.986Z,6.40
2018-11-14T03:25:20.212Z,6.40
2018-11-14T03:27:49.479Z,6.40
2018-11-14T03:30:19.058Z,6.40
2018-11-14T03:32:48.976Z,6.40
2018-11-14T03:35:18.124Z,6.40
2018-11-14T03:37:47.318Z,6.30
2018-11-14T03:40:17.236Z,6.30
2018-11-14T03:42:46.401Z,6.30
2018-11-14T03:45:15.953Z,6.20
2018-11-14T03:47:45.421Z,6.20
2018-11-14T03:50:14.479Z,6.20
2018-11-14T03:52:43.640Z,6.10
2018-11-14T03:55:12.951Z,6.00
2018-11-14T03:57:42.118Z,6.00
2018-11-14T04:00:13.795Z,6.00
2018-11-14T04:02:44.233Z,6.00
2018-11-14T04:05:13.681Z,6.00
2018-11-14T04:07:43.055Z,6.00
2018-11-14T04:10:13.171Z,6.00
2018-11-14T04:12:42.556Z,6.00
2018-11-14T04:15:14.324Z,6.00
2018-11-14T04:17:43.404Z,6.00
2018-11-14T04:20:15.826Z,6.10
2018-11-14T04:22:45.700Z,6.10
2018-11-14T04:25:17.373Z,6.10
2018-11-14T04:27:47.162Z,6.10
2018-11-14T04:30:20.711Z,6.00
2018-11-14T04:32:50.069Z,6.00
2018-11-14T04:35:20.078Z,6.00
2018-11-14T04:37:50.287Z,6.00
2018-11-14T04:40:21.463Z,6.00
2018-11-14T04:42:50.589Z,6.00
2018-11-14T04:45:21.591Z,6.00
2018-11-14T04:47:50.711Z,6.00
2018-11-14T04:50:22.042Z,6.00
2018-11-14T04:52:51.648Z,6.00
2018-11-14T04:55:22.071Z,6.00
2018-11-14T04:57:51.583Z,6.00
2018-11-14T05:00:21.790Z,5.90
2018-11-14T05:02:52.325Z,5.90
2018-11-14T05:05:24.293Z,6.00
2018-11-14T05:07:54.342Z,6.00
2018-11-14T05:10:27.740Z,6.00
2018-11-14T05:12:57.934Z,6.00
2018-11-14T05:15:27.022Z,6.00
2018-11-14T05:17:56.568Z,6.00
2018-11-14T05:20:25.752Z,6.00
2018-11-14T05:22:54.861Z,6.00
2018-11-14T05:25:23.922Z,6.00
2018-11-14T05:27:53.314Z,6.00
2018-11-14T05:30:23.449Z,6.00
2018-11-14T05:32:53.048Z,6.00
2018-11-14T05:35:22.257Z,6.00
2018-11-14T05:37:51.439Z,6.00
2018-11-14T05:40:22.393Z,6.00
2018-11-14T05:42:52.355Z,6.00
2018-11-14T05:45:23.722Z,6.00
2018-11-14T05:47:53.098Z,5.90
2018-11-14T05:50:23.192Z,5.90
2018-11-14T05:52:52.407Z,5.90
2018-11-14T05:55:21.496Z,5.90
2018-11-14T05:57:50.590Z,5.90
2018-11-14T06:00:25.164Z,5.80
2018-11-14T06:02:54.661Z,5.80
2018-11-14T06:05:23.682Z,5.80
2018-11-14T06:07:52.875Z,5.80
2018-11-14T06:10:22.921Z,5.90
2018-11-14T06:12:53.925Z,5.90
2018-11-14T06:15:23.529Z,5.90
2018-11-14T06:17:53.861Z,5.90
2018-11-14T06:20:23.685Z,5.90
2018-11-14T06:22:53.614Z,5.90
2018-11-14T06:25:34.683Z,5.90
2018-11-14T06:28:05.118Z,5.90
2018-11-14T06:30:35.018Z,5.90
2018-11-14T06:33:05.447Z,5.80
2018-11-14T06:35:36.573Z,5.90
2018-11-14T06:38:05.943Z,5.80
2018-11-14T06:40:35.177Z,5.90
2018-11-14T06:43:04.272Z,5.90
2018-11-14T06:45:34.114Z,5.90
2018-11-14T06:48:04.406Z,5.80
2018-11-14T06:50:33.717Z,5.90
2018-11-14T06:53:04.469Z,6.00
2018-11-14T06:55:33.636Z,6.00
2018-11-14T06:58:02.943Z,5.90
2018-11-14T07:00:33.018Z,5.90
2018-11-14T07:03:04.269Z,5.90
2018-11-14T07:05:33.732Z,5.90
2018-11-14T07:08:03.628Z,5.90
2018-11-14T07:10:37.007Z,5.80
2018-11-14T07:13:07.981Z,5.90
2018-11-14T07:15:37.782Z,5.80
2018-11-14T07:18:08.022Z,5.80
2018-11-14T07:20:38.750Z,5.80
2018-11-14T07:23:08.128Z,5.90
2018-11-14T07:25:37.341Z,5.90
2018-11-14T07:28:06.605Z,5.80
2018-11-14T07:30:36.397Z,5.80
2018-11-14T07:33:07.202Z,5.80
2018-11-14T07:35:36.502Z,5.90
2018-11-14T07:38:43.572Z,6.00
2018-11-14T07:41:18.108Z,6.00
2018-11-14T07:43:47.947Z,6.00
2018-11-14T07:46:17.126Z,6.00
2018-11-14T07:48:47.468Z,6.00
2018-11-14T07:51:16.537Z,6.10
2018-11-14T07:53:45.719Z,6.10
2018-11-14T07:56:14.906Z,6.20
2018-11-14T07:58:45.228Z,6.20
2018-11-14T08:01:14.899Z,6.30
2018-11-14T08:03:48.413Z,6.40
2018-11-14T08:06:17.638Z,6.40
2018-11-14T08:08:47.477Z,6.50
2018-11-14T08:11:16.997Z,6.50
2018-11-14T08:13:47.617Z,6.60
2018-11-14T08:16:16.903Z,6.60
2018-11-14T08:18:46.021Z,6.70
2018-11-14T08:21:15.952Z,6.70
2018-11-14T08:23:45.179Z,6.80
2018-11-14T08:26:14.255Z,6.90
2018-11-14T08:28:45.237Z,6.90
2018-11-14T08:31:15.671Z,6.90
2018-11-14T08:33:44.910Z,7.00
2018-11-14T08:36:14.068Z,7.00
2018-11-14T08:38:43.369Z,7.10
2018-11-14T08:41:12.632Z,7.20
2018-11-14T08:43:41.759Z,7.30
2018-11-14T08:46:11.020Z,7.30
2018-11-14T08:48:40.271Z,7.40
2018-11-14T08:51:09.686Z,7.40
2018-11-14T08:53:39.000Z,7.50
2018-11-14T08:56:08.154Z,7.60
2018-11-14T08:58:37.463Z,7.60
2018-11-14T09:01:06.870Z,7.70
2018-11-14T09:03:36.286Z,7.80
2018-11-14T09:06:05.571Z,7.80
2018-11-14T09:08:35.122Z,7.90
2018-11-14T09:11:04.425Z,7.90
2018-11-14T09:13:33.445Z,8.00
2018-11-14T09:16:02.712Z,8.10
2018-11-14T09:18:31.968Z,8.20
2018-11-14T09:21:01.078Z,8.20
2018-11-14T09:23:31.196Z,8.30
2018-11-14T09:26:00.414Z,8.40
2018-11-14T09:28:29.695Z,8.40
2018-11-14T09:30:59.120Z,8.50
2018-11-14T09:33:28.307Z,8.60
2018-11-14T09:35:58.190Z,8.70
2018-11-14T09:38:27.437Z,8.80
2018-11-14T09:40:56.650Z,8.80
2018-11-14T09:43:25.649Z,9.00
2018-11-14T09:45:55.214Z,9.10
2018-11-14T09:48:24.477Z,9.20
2018-11-14T09:50:53.502Z,9.20
2018-11-14T09:53:23.002Z,9.30
2018-11-14T09:55:52.146Z,9.40
2018-11-14T09:58:21.317Z,9.50
2018-11-14T10:00:50.555Z,9.60
2018-11-14T10:03:20.803Z,9.70
2018-11-14T10:05:50.607Z,9.80
2018-11-14T10:08:20.532Z,9.90
2018-11-14T10:10:50.503Z,9.90
2018-11-14T10:13:20.186Z,10.00
2018-11-14T10:15:49.311Z,10.10
2018-11-14T10:18:23.124Z,10.20
2018-11-14T10:20:52.228Z,10.30
2018-11-14T10:23:21.508Z,10.30
2018-11-14T10:25:50.676Z,10.40
2018-11-14T10:28:20.195Z,10.40
2018-11-14T10:30:49.807Z,10.50
2018-11-14T10:33:19.072Z,10.50
2018-11-14T10:35:48.121Z,10.60
2018-11-14T10:38:18.116Z,10.70
2018-11-14T10:40:48.392Z,10.80
2018-11-14T10:43:17.739Z,10.90
2018-11-14T10:45:47.390Z,10.90
2018-11-14T10:48:17.311Z,11.00
2018-11-14T10:50:46.592Z,11.10
2018-11-14T10:53:15.664Z,11.20
2018-11-14T10:55:44.938Z,11.30
2018-11-14T10:58:14.182Z,11.30
2018-11-14T11:01:51.488Z,11.50
2018-11-14T11:04:29.701Z,11.50
2018-11-14T11:07:04.496Z,11.60
2018-11-14T11:09:38.812Z,11.70
2018-11-14T11:12:13.317Z,11.90
2018-11-14T11:14:47.675Z,12.00
2018-11-14T11:17:21.309Z,12.20
2018-11-14T11:19:50.690Z,12.30
2018-11-14T11:22:20.027Z,12.50
2018-11-14T11:24:50.147Z,12.60
2018-11-14T11:27:19.474Z,12.70
2018-11-14T11:29:48.543Z,12.80
2018-11-14T11:32:17.973Z,12.90
2018-11-14T11:34:47.063Z,13.00
2018-11-14T11:37:16.183Z,13.10
2018-11-14T11:39:45.815Z,13.30
2018-11-14T11:42:16.790Z,13.40
2018-11-14T11:44:45.889Z,13.40
2018-11-14T11:47:16.162Z,13.50
2018-11-14T11:49:45.207Z,13.60
2018-11-14T11:52:14.252Z,13.70
2018-11-14T11:54:43.331Z,13.70
2018-11-14T11:57:19.293Z,13.80
2018-11-14T11:59:49.489Z,13.80
2018-11-14T12:02:18.817Z,13.80
2018-11-14T12:04:48.976Z,13.80
2018-11-14T12:07:18.334Z,13.80
2018-11-14T12:09:47.379Z,13.90
2018-11-14T12:12:17.076Z,13.90
2018-11-14T12:14:46.267Z,13.90
2018-11-14T12:17:15.801Z,14.00
2018-11-14T12:19:45.739Z,14.10
2018-11-14T12:22:14.915Z,14.20
2018-11-14T12:24:44.164Z,14.20
2018-11-14T12:27:13.422Z,14.20
2018-11-14T12:29:42.732Z,14.10
2018-11-14T12:32:12.690Z,14.10
2018-11-14T12:34:43.380Z,14.10
2018-11-14T12:37:15.259Z,14.10
2018-11-14T12:39:45.495Z,14.20
2018-11-14T12:42:14.573Z,14.30
2018-11-14T12:44:43.785Z,14.30
2018-11-14T12:47:13.171Z,14.30
2018-11-14T12:49:42.282Z,14.30
2018-11-14T12:52:11.464Z,14.30
2018-11-14T12:54:41.718Z,14.40
2018-11-14T12:57:10.979Z,14.50
2018-11-14T12:59:40.148Z,14.50
2018-11-14T13:02:09.680Z,14.60
2018-11-14T13:04:38.917Z,14.70
2018-11-14T13:07:08.346Z,14.70
2018-11-14T13:09:37.582Z,14.70
2018-11-14T13:12:06.864Z,14.70
2018-11-14T13:14:36.192Z,14.70
2018-11-14T13:17:07.174Z,14.70
2018-11-14T13:19:36.205Z,14.70
2018-11-14T13:22:05.705Z,14.70
2018-11-14T13:24:35.652Z,14.70
2018-11-14T13:27:05.159Z,14.60
2018-11-14T13:29:34.352Z,14.40
2018-11-14T13:32:03.865Z,14.30
2018-11-14T13:34:33.990Z,14.30
2018-11-14T13:37:03.351Z,14.30
2018-11-14T13:39:33.288Z,14.20
2018-11-14T13:42:02.610Z,14.10
2018-11-14T13:44:32.317Z,14.10
2018-11-14T13:47:01.556Z,14.10
2018-11-14T13:49:32.879Z,14.10
2018-11-14T13:52:01.804Z,14.00
2018-11-14T13:54:30.926Z,13.90
2018-11-14T13:57:01.082Z,13.90
2018-11-14T13:59:30.308Z,13.90
2018-11-14T14:01:59.465Z,13.80
2018-11-14T14:04:28.693Z,13.70
2018-11-14T14:06:57.829Z,13.70
2018-11-14T14:09:26.948Z,13.70
2018-11-14T14:11:55.975Z,13.60
2018-11-14T14:14:25.693Z,13.60
2018-11-14T14:16:54.872Z,13.50
2018-11-14T14:19:24.470Z,13.40
2018-11-14T14:21:54.324Z,13.30
2018-11-14T14:24:23.494Z,13.30
2018-11-14T14:26:52.665Z,13.10
2018-11-14T14:29:22.169Z,13.00
2018-11-14T14:31:51.365Z,13.00
2018-11-14T14:34:20.446Z,12.90
2018-11-14T14:36:49.595Z,12.90
2018-11-14T14:39:19.524Z,12.80
2018-11-14T14:41:48.731Z,12.80
2018-11-14T14:44:18.186Z,12.70
2018-11-14T14:46:47.462Z,12.70
2018-11-14T14:49:16.575Z,12.60
2018-11-14T14:51:46.149Z,12.50
2018-11-14T14:54:15.453Z,12.50
2018-11-14T14:56:44.727Z,12.40
2018-11-14T14:59:14.035Z,12.30
2018-11-14T15:01:43.989Z,12.30
2018-11-14T15:04:13.303Z,12.20
2018-11-14T15:06:42.546Z,12.10
2018-11-14T15:09:12.266Z,12.00
2018-11-14T15:11:41.773Z,12.00
2018-11-14T15:14:10.977Z,11.90
2018-11-14T15:16:40.170Z,11.80
2018-11-14T15:19:09.341Z,11.80
2018-11-14T15:21:38.513Z,11.80
2018-11-14T15:24:07.906Z,11.70
2018-11-14T15:26:36.965Z,11.70
2018-11-14T15:29:06.833Z,11.60
2018-11-14T15:31:35.918Z,11.50
2018-11-14T15:34:06.333Z,11.50
2018-11-14T15:36:35.932Z,11.50
2018-11-14T15:39:08.097Z,11.30
2018-11-14T15:41:39.181Z,11.20
2018-11-14T15:44:08.674Z,11.10
2018-11-14T15:46:39.637Z,11.10
2018-11-14T15:49:10.253Z,11.00
2018-11-14T15:51:39.507Z,10.80
2018-11-14T15:54:08.621Z,10.70
2018-11-14T15:56:39.750Z,10.70
2018-11-14T15:59:08.922Z,10.60
2018-11-14T16:01:40.345Z,10.60
2018-11-14T16:04:10.760Z,10.50
2018-11-14T16:06:40.267Z,10.40
2018-11-14T16:09:12.348Z,10.40
2018-11-14T16:11:41.563Z,10.30
2018-11-14T16:14:10.838Z,10.20
2018-11-14T16:16:41.332Z,10.10
2018-11-14T16:19:10.459Z,10.00
2018-11-14T16:21:39.649Z,9.90
2018-11-14T16:24:12.167Z,9.80
2018-11-14T16:26:41.423Z,9.70
2018-11-14T16:29:10.606Z,9.50
2018-11-14T16:31:40.387Z,9.40
2018-11-14T16:34:09.404Z,9.30
2018-11-14T16:36:38.698Z,9.20
2018-11-14T16:39:12.160Z,9.20
2018-11-14T16:41:43.056Z,9.10
2018-11-14T16:44:12.268Z,9.00
2018-11-14T16:46:41.550Z,9.00
2018-11-14T16:49:10.712Z,8.90
2018-11-14T16:51:39.859Z,8.80
2018-11-14T16:54:09.256Z,8.70
2018-11-14T16:56:38.967Z,8.70
2018-11-14T16:59:08.289Z,8.60
2018-11-14T17:01:37.385Z,8.60
2018-11-14T17:04:06.543Z,8.50
2018-11-14T17:06:35.840Z,8.50
2018-11-14T17:09:08.230Z,8.40
2018-11-14T17:11:37.899Z,8.30
2018-11-14T17:14:07.475Z,8.20
2018-11-14T17:16:36.993Z,8.20
2018-11-14T17:19:07.567Z,8.10
2018-11-14T17:21:37.049Z,8.00
2018-11-14T17:24:07.605Z,8.00
2018-11-14T17:26:36.930Z,7.90
2018-11-14T17:29:06.041Z,7.90
2018-11-14T17:31:37.394Z,7.90
2018-11-14T17:34:07.296Z,7.80
2018-11-14T17:36:36.587Z,7.70
2018-11-14T17:39:10.408Z,7.70
2018-11-14T17:41:40.404Z,7.70
2018-11-14T17:44:09.793Z,7.60
2018-11-14T17:46:39.656Z,7.50
2018-11-14T17:49:08.845Z,7.50
2018-11-14T17:51:38.511Z,7.40
2018-11-14T17:54:07.745Z,7.40
2018-11-14T17:56:38.233Z,7.30
2018-11-14T17:59:11.237Z,7.30
2018-11-14T18:01:43.338Z,7.20
2018-11-14T18:04:15.621Z,7.20
2018-11-14T18:06:44.774Z,7.20
2018-11-14T18:09:14.936Z,7.10
2018-11-14T18:11:44.147Z,7.10
2018-11-14T18:14:13.416Z,7.00
2018-11-14T18:16:42.712Z,7.00
2018-11-14T18:19:11.850Z,7.00
2018-11-14T18:21:41.127Z,7.00
2018-11-14T18:24:10.458Z,7.00
2018-11-14T18:26:39.914Z,7.00
2018-11-14T18:29:09.112Z,7.00
2018-11-14T18:31:39.188Z,6.90
2018-11-14T18:34:08.514Z,6.80
2018-11-14T18:36:37.748Z,6.80
2018-11-14T18:39:10.654Z,6.70
2018-11-14T18:41:39.969Z,6.70
2018-11-14T18:44:09.112Z,6.60
2018-11-14T18:46:38.501Z,6.60
2018-11-14T18:49:07.667Z,6.60
2018-11-14T18:51:36.756Z,6.50
2018-11-14T18:54:06.483Z,6.50
2018-11-14T18:56:35.636Z,6.40
2018-11-14T18:59:04.837Z,6.40
2018-11-14T19:01:33.942Z,6.40
2018-11-14T19:04:03.514Z,6.40
2018-11-14T19:06:32.766Z,6.40
2018-11-14T19:09:02.152Z,6.40
2018-11-14T19:11:31.453Z,6.40
2018-11-14T19:14:00.619Z,6.40
2018-11-14T19:16:30.629Z,6.40
2018-11-14T19:18:59.807Z,6.40
2018-11-14T19:21:28.936Z,6.40
2018-11-14T19:23:58.936Z,6.40
2018-11-14T19:26:28.078Z,6.40
2018-11-14T19:28:57.882Z,6.40
2018-11-14T19:31:27.080Z,6.40
2018-11-14T19:33:56.148Z,6.30
2018-11-14T19:36:25.462Z,6.30
2018-11-14T19:38:54.877Z,6.30
2018-11-14T19:41:24.031Z,6.30
2018-11-14T19:43:53.512Z,6.20
2018-11-14T19:46:22.782Z,6.20
2018-11-14T19:48:52.123Z,6.20
2018-11-14T19:51:21.658Z,6.20
2018-11-14T19:53:55.396Z,6.20
2018-11-14T19:56:25.009Z,6.20
2018-11-14T19:58:54.172Z,6.10
2018-11-14T20:01:23.380Z,6.10
2018-11-14T20:03:52.728Z,6.10
2018-11-14T20:06:21.917Z,6.10
2018-11-14T20:08:52.014Z,6.00
2018-11-14T20:11:21.177Z,6.00
2018-11-14T20:13:50.993Z,6.00
2018-11-14T20:16:20.833Z,6.00
2018-11-14T20:18:49.959Z,6.00
2018-11-14T20:21:19.056Z,6.00
2018-11-14T20:23:48.185Z,6.00
2018-11-14T20:26:17.530Z,6.00
2018-11-14T20:28:47.263Z,6.00
2018-11-14T20:31:16.693Z,6.00
2018-11-14T20:33:46.450Z,6.10
2018-11-14T20:36:15.515Z,6.20
2018-11-14T20:38:45.055Z,6.30
2018-11-14T20:41:14.223Z,6.40
2018-11-14T20:43:43.312Z,6.50
2018-11-14T20:46:12.469Z,6.50
2018-11-14T20:48:41.815Z,6.60
2018-11-14T20:51:12.044Z,6.60
2018-11-14T20:53:41.334Z,6.70
2018-11-14T20:56:10.638Z,6.70
2018-11-14T20:58:39.887Z,6.70
2018-11-14T21:01:09.122Z,6.70
2018-11-14T21:03:38.198Z,6.70
2018-11-14T21:06:07.475Z,6.70
2018-11-14T21:08:36.602Z,6.70
2018-11-14T21:11:06.353Z,6.70
2018-11-14T21:13:35.450Z,6.70
2018-11-14T21:16:04.522Z,6.60
2018-11-14T21:18:33.727Z,6.70
2018-11-14T21:21:02.777Z,6.80
2018-11-14T21:23:31.920Z,6.80
2018-11-14T21:26:01.137Z,6.80
2018-11-14T21:28:30.298Z,6.80
2018-11-14T21:30:59.429Z,6.70
2018-11-14T21:33:28.640Z,6.70
2018-11-14T21:35:57.923Z,6.70
2018-11-14T21:38:27.053Z,6.60
2018-11-14T21:40:56.205Z,6.60
2018-11-14T21:43:25.663Z,6.60
2018-11-14T21:45:54.686Z,6.60
2018-11-14T21:48:23.835Z,6.50
2018-11-14T21:50:53.056Z,6.50
2018-11-14T21:53:22.796Z,6.40
2018-11-14T21:55:51.953Z,6.50
2018-11-14T21:58:23.052Z,6.40
2018-11-14T22:00:52.689Z,6.40
2018-11-14T22:03:22.437Z,6.40
2018-11-14T22:05:52.163Z,6.40
2018-11-14T22:08:21.256Z,6.40
2018-11-14T22:10:50.493Z,6.40
2018-11-14T22:13:19.594Z,6.40
2018-11-14T22:15:48.879Z,6.40
2018-11-14T22:18:18.206Z,6.30
2018-11-14T22:20:47.349Z,6.30
2018-11-14T22:23:16.959Z,6.30
2018-11-14T22:25:45.850Z,6.20
2018-11-14T22:28:15.252Z,6.20
2018-11-14T22:30:44.292Z,6.20
2018-11-14T22:33:14.206Z,6.20
2018-11-14T22:35:43.383Z,6.10
2018-11-14T22:38:12.548Z,6.10
2018-11-14T22:40:42.434Z,6.10
2018-11-14T22:43:11.470Z,6.10
2018-11-14T22:45:40.556Z,6.20
2018-11-14T22:48:09.827Z,6.20
2018-11-14T22:50:38.962Z,6.20
2018-11-14T22:53:08.982Z,6.20
2018-11-14T22:55:38.093Z,6.30
2018-11-14T22:58:07.328Z,6.20
2018-11-14T23:00:41.933Z,6.30
2018-11-14T23:03:11.096Z,6.20
2018-11-14T23:05:40.228Z,6.20
2018-11-14T23:08:09.400Z,6.20
2018-11-14T23:10:39.194Z,6.20
2018-11-14T23:13:08.397Z,6.10
2018-11-14T23:15:37.566Z,6.20
2018-11-14T23:18:07.101Z,6.20
2018-11-14T23:20:36.319Z,6.10
2018-11-14T23:23:06.594Z,6.10
2018-11-14T23:25:35.683Z,6.00
2018-11-14T23:28:04.975Z,6.00
2018-11-14T23:30:34.082Z,6.00
2018-11-14T23:33:03.319Z,5.90
2018-11-14T23:35:32.844Z,5.90
2018-11-14T23:38:03.399Z,5.90
2018-11-14T23:40:32.567Z,5.90
2018-11-14T23:43:01.865Z,5.80
2018-11-14T23:45:31.805Z,5.80
2018-11-14T23:48:01.750Z,5.80
2018-11-14T23:50:31.951Z,5.80
2018-11-14T23:53:01.856Z,5.70
2018-11-14T23:55:32.513Z,5.70
2018-11-14T23:58:01.626Z,5.70
